Cushing, Oklahoma
Current Conditions -  °F | °C
As of 1:35 AM on Sunday 23 Nov 2014 (Local Time) from KCUH Reporting Station
Overcast Overcast  
Wind Chill: 55°   Ceiling: 1000
Heat Index: 55°   Visibility: 10mi
Dew Point: 55°   Wind: 5mph
Humidity: 100%   Direction: 160°SSE
Pressure: 29.6"   Gusts: NA
Location:  35.99°N, 96.77°W
Report Text: KCUH 230735Z AUTO 16004KT 10SM OVC010 13/13 A2960 RMK AO2
Loading
Personal Weather Stations






























Interactive Weather Map New forecast layout! Learn more

10-Day Weather Forecast

Advertisements
Track Severe Weather on mobile